sensor_id;sensor_type;location;lat;lon;timestamp;pressure;altitude;pressure_sealevel;temperature;humidity
15642;BME280;7920;42.524;27.448;2024-03-25T00:01:24;99626.44;;;11.30;100.00
15642;BME280;7920;42.524;27.448;2024-03-25T00:03:50;99618.59;;;11.41;100.00
15642;BME280;7920;42.524;27.448;2024-03-25T00:06:16;99613.97;;;11.13;100.00
15642;BME280;7920;42.524;27.448;2024-03-25T00:08:45;99623.47;;;11.23;100.00
15642;BME280;7920;42.524;27.448;2024-03-25T00:11:12;99615.69;;;11.35;100.00
15642;BME280;7920;42.524;27.448;2024-03-25T00:13:38;99607.94;;;11.44;100.00
15642;BME280;7920;42.524;27.448;2024-03-25T00:16:05;99597.06;;;11.50;100.00
15642;BME280;7920;42.524;27.448;2024-03-25T00:18:32;99592.13;;;11.47;100.00
15642;BME280;7920;42.524;27.448;2024-03-25T00:20:58;99587.16;;;11.55;100.00
15642;BME280;7920;42.524;27.448;2024-03-25T00:23:25;99585.75;;;11.51;100.00
15642;BME280;7920;42.524;27.448;2024-03-25T00:25:53;99582.88;;;11.54;100.00
15642;BME280;7920;42.524;27.448;2024-03-25T00:28:20;99587.44;;;11.62;100.00
15642;BME280;7920;42.524;27.448;2024-03-25T00:30:46;99576.69;;;11.66;100.00
15642;BME280;7920;42.524;27.448;2024-03-25T00:33:12;99565.31;;;11.67;100.00
15642;BME280;7920;42.524;27.448;2024-03-25T00:35:38;99578.94;;;11.60;100.00
15642;BME280;7920;42.524;27.448;2024-03-25T00:38:05;99568.75;;;11.47;100.00
15642;BME280;7920;42.524;27.448;2024-03-25T00:40:31;99562.78;;;11.36;100.00
15642;BME280;7920;42.524;27.448;2024-03-25T00:43:00;99556.88;;;11.34;100.00
15642;BME280;7920;42.524;27.448;2024-03-25T00:45:26;99568.59;;;11.28;100.00
15642;BME280;7920;42.524;27.448;2024-03-25T00:47:52;99557.56;;;11.36;100.00
15642;BME280;7920;42.524;27.448;2024-03-25T00:50:19;99552.78;;;11.31;100.00
15642;BME280;7920;42.524;27.448;2024-03-25T00:52:45;99559.38;;;11.35;100.00
15642;BME280;7920;42.524;27.448;2024-03-25T00:55:11;99564.78;;;11.43;100.00
15642;BME280;7920;42.524;27.448;2024-03-25T00:57:38;99552.66;;;11.53;100.00
15642;BME280;7920;42.524;27.448;2024-03-25T01:00:08;99551.66;;;11.65;100.00
15642;BME280;7920;42.524;27.448;2024-03-25T01:02:34;99543.66;;;11.57;100.00
15642;BME280;7920;42.524;27.448;2024-03-25T01:05:00;99542.72;;;11.58;100.00
15642;BME280;7920;42.524;27.448;2024-03-25T01:07:26;99541.78;;;11.59;100.00
15642;BME280;7920;42.524;27.448;2024-03-25T01:09:53;99546.19;;;11.68;100.00
15642;BME280;7920;42.524;27.448;2024-03-25T01:12:19;99542.84;;;11.57;100.00
15642;BME280;7920;42.524;27.448;2024-03-25T01:14:45;99542.28;;;11.53;100.00
15642;BME280;7920;42.524;27.448;2024-03-25T01:17:14;99540.88;;;11.49;100.00
15642;BME280;7920;42.524;27.448;2024-03-25T01:19:40;99542.28;;;11.53;100.00
15642;BME280;7920;42.524;27.448;2024-03-25T01:22:07;99542.47;;;11.61;100.00
15642;BME280;7920;42.524;27.448;2024-03-25T01:24:33;99546.91;;;11.70;100.00
15642;BME280;7920;42.524;27.448;2024-03-25T01:26:59;99548.19;;;11.76;100.00
15642;BME280;7920;42.524;27.448;2024-03-25T01:29:25;99545.91;;;11.83;100.00
15642;BME280;7920;42.524;27.448;2024-03-25T01:31:52;99546.66;;;11.94;100.00
15642;BME280;7920;42.524;27.448;2024-03-25T01:34:21;99553.28;;;12.08;100.00
15642;BME280;7920;42.524;27.448;2024-03-25T01:36:47;99544.34;;;12.01;100.00
15642;BME280;7920;42.524;27.448;2024-03-25T01:39:13;99536.38;;;11.93;100.00
15642;BME280;7920;42.524;27.448;2024-03-25T01:41:39;99522.09;;;11.78;100.00
15642;BME280;7920;42.524;27.448;2024-03-25T01:44:06;99522.69;;;11.49;100.00
15642;BME280;7920;42.524;27.448;2024-03-25T01:46:32;99523.41;;;11.51;100.00
15642;BME280;7920;42.524;27.448;2024-03-25T01:48:58;99523.03;;;11.35;100.00
15642;BME280;7920;42.524;27.448;2024-03-25T01:51:28;99511.25;;;11.31;100.00
15642;BME280;7920;42.524;27.448;2024-03-25T01:53:55;99509.88;;;11.16;100.00
15642;BME280;7920;42.524;27.448;2024-03-25T01:56:23;99501.25;;;11.15;100.00
15642;BME280;7920;42.524;27.448;2024-03-25T01:58:50;99510.19;;;11.02;100.00
15642;BME280;7920;42.524;27.448;2024-03-25T02:01:17;99497.91;;;11.24;100.00
15642;BME280;7920;42.524;27.448;2024-03-25T02:03:45;99499.78;;;11.54;100.00
15642;BME280;7920;42.524;27.448;2024-03-25T02:06:13;99490.88;;;11.98;100.00
15642;BME280;7920;42.524;27.448;2024-03-25T02:08:42;99476.94;;;12.58;100.00
15642;BME280;7920;42.524;27.448;2024-03-25T02:11:09;99478.56;;;12.50;100.00
15642;BME280;7920;42.524;27.448;2024-03-25T02:13:35;99487.16;;;12.41;100.00
15642;BME280;7920;42.524;27.448;2024-03-25T02:16:02;99481.28;;;12.39;100.00
15642;BME280;7920;42.524;27.448;2024-03-25T02:18:28;99484.13;;;12.26;100.00
15642;BME280;7920;42.524;27.448;2024-03-25T02:20:54;99492.81;;;12.06;100.00
15642;BME280;7920;42.524;27.448;2024-03-25T02:23:21;99490.25;;;11.85;100.00
15642;BME280;7920;42.524;27.448;2024-03-25T02:25:52;99495.25;;;11.56;100.00
15642;BME280;7920;42.524;27.448;2024-03-25T02:28:19;99499.50;;;11.37;100.00
15642;BME280;7920;42.524;27.448;2024-03-25T02:30:45;99492.84;;;11.44;100.00
15642;BME280;7920;42.524;27.448;2024-03-25T02:33:12;99495.78;;;11.50;100.00
15642;BME280;7920;42.524;27.448;2024-03-25T02:35:39;99482.41;;;11.55;100.00
15642;BME280;7920;42.524;27.448;2024-03-25T02:38:07;99483.06;;;11.47;100.00
15642;BME280;7920;42.524;27.448;2024-03-25T02:40:34;99498.53;;;11.17;100.00
15642;BME280;7920;42.524;27.448;2024-03-25T02:43:03;99493.94;;;10.89;100.00
15642;BME280;7920;42.524;27.448;2024-03-25T02:45:30;99486.22;;;10.77;100.00
15642;BME280;7920;42.524;27.448;2024-03-25T02:47:56;99484.31;;;10.79;100.00
15642;BME280;7920;42.524;27.448;2024-03-25T02:50:22;99479.88;;;10.70;100.00
15642;BME280;7920;42.524;27.448;2024-03-25T02:52:49;99458.72;;;11.07;100.00
15642;BME280;7920;42.524;27.448;2024-03-25T02:55:15;99462.88;;;11.60;100.00
15642;BME280;7920;42.524;27.448;2024-03-25T02:57:41;99465.00;;;11.97;100.00
15642;BME280;7920;42.524;27.448;2024-03-25T03:00:11;99449.13;;;12.49;100.00
15642;BME280;7920;42.524;27.448;2024-03-25T03:02:38;99442.56;;;12.64;100.00
15642;BME280;7920;42.524;27.448;2024-03-25T03:05:05;99446.41;;;12.99;100.00
15642;BME280;7920;42.524;27.448;2024-03-25T03:07:31;99455.19;;;13.27;100.00
15642;BME280;7920;42.524;27.448;2024-03-25T03:09:57;99445.66;;;13.45;100.00
15642;BME280;7920;42.524;27.448;2024-03-25T03:12:24;99437.63;;;13.09;100.00
15642;BME280;7920;42.524;27.448;2024-03-25T03:14:50;99449.69;;;12.82;100.00
15642;BME280;7920;42.524;27.448;2024-03-25T03:17:19;99456.53;;;12.92;100.00
15642;BME280;7920;42.524;27.448;2024-03-25T03:19:45;99465.53;;;12.40;100.00
15642;BME280;7920;42.524;27.448;2024-03-25T03:22:11;99466.38;;;12.60;100.00
15642;BME280;7920;42.524;27.448;2024-03-25T03:24:38;99464.75;;;12.68;100.00
15642;BME280;7920;42.524;27.448;2024-03-25T03:27:04;99456.28;;;13.15;100.00
15642;BME280;7920;42.524;27.448;2024-03-25T03:29:30;99443.41;;;12.94;100.00
15642;BME280;7920;42.524;27.448;2024-03-25T03:31:57;99441.75;;;12.93;100.00
15642;BME280;7920;42.524;27.448;2024-03-25T03:34:26;99446.69;;;13.15;100.00
15642;BME280;7920;42.524;27.448;2024-03-25T03:36:52;99447.22;;;13.09;100.00
15642;BME280;7920;42.524;27.448;2024-03-25T03:39:18;99448.44;;;13.24;100.00
15642;BME280;7920;42.524;27.448;2024-03-25T03:41:44;99453.41;;;13.27;100.00
15642;BME280;7920;42.524;27.448;2024-03-25T03:44:11;99463.66;;;13.38;100.00
15642;BME280;7920;42.524;27.448;2024-03-25T03:46:37;99457.22;;;13.42;100.00
15642;BME280;7920;42.524;27.448;2024-03-25T03:49:04;99451.88;;;13.44;100.00
15642;BME280;7920;42.524;27.448;2024-03-25T03:51:32;99454.31;;;13.55;100.00
15642;BME280;7920;42.524;27.448;2024-03-25T03:53:59;99456.13;;;13.82;100.00
15642;BME280;7920;42.524;27.448;2024-03-25T03:56:25;99461.66;;;14.06;100.00
15642;BME280;7920;42.524;27.448;2024-03-25T03:58:51;99461.66;;;14.06;100.00
15642;BME280;7920;42.524;27.448;2024-03-25T04:01:18;99456.09;;;14.19;100.00
15642;BME280;7920;42.524;27.448;2024-03-25T04:03:45;99456.31;;;14.25;100.00
15642;BME280;7920;42.524;27.448;2024-03-25T04:06:12;99450.19;;;14.17;100.00
15642;BME280;7920;42.524;27.448;2024-03-25T04:08:41;99452.06;;;13.70;100.00
15642;BME280;7920;42.524;27.448;2024-03-25T04:11:07;99462.84;;;12.71;100.00
15642;BME280;7920;42.524;27.448;2024-03-25T04:13:34;99460.22;;;12.02;100.00
15642;BME280;7920;42.524;27.448;2024-03-25T04:16:01;99441.63;;;11.46;100.00
15642;BME280;7920;42.524;27.448;2024-03-25T04:18:28;99437.06;;;11.17;100.00
15642;BME280;7920;42.524;27.448;2024-03-25T04:20:55;99421.03;;;10.92;100.00
15642;BME280;7920;42.524;27.448;2024-03-25T04:23:21;99419.84;;;10.75;100.00
15642;BME280;7920;42.524;27.448;2024-03-25T04:25:50;99424.03;;;10.87;100.00
15642;BME280;7920;42.524;27.448;2024-03-25T04:28:17;99431.38;;;10.82;100.00
15642;BME280;7920;42.524;27.448;2024-03-25T04:30:43;99429.75;;;11.22;100.00
15642;BME280;7920;42.524;27.448;2024-03-25T04:33:09;99416.94;;;10.89;100.00
15642;BME280;7920;42.524;27.448;2024-03-25T04:35:36;99423.22;;;10.87;100.00
15642;BME280;7920;42.524;27.448;2024-03-25T04:38:02;99430.28;;;10.53;100.00
15642;BME280;7920;42.524;27.448;2024-03-25T04:40:29;99431.38;;;10.50;100.00
15642;BME280;7920;42.524;27.448;2024-03-25T04:42:58;99430.84;;;10.02;100.00
15642;BME280;7920;42.524;27.448;2024-03-25T04:45:24;99429.41;;;10.09;100.00
15642;BME280;7920;42.524;27.448;2024-03-25T04:47:50;99429.56;;;10.19;100.00
15642;BME280;7920;42.524;27.448;2024-03-25T04:50:17;99432.22;;;10.71;100.00
15642;BME280;7920;42.524;27.448;2024-03-25T04:52:43;99422.28;;;10.76;100.00
15642;BME280;7920;42.524;27.448;2024-03-25T04:55:09;99421.41;;;10.35;100.00
15642;BME280;7920;42.524;27.448;2024-03-25T04:57:35;99417.78;;;10.58;100.00
15642;BME280;7920;42.524;27.448;2024-03-25T05:00:05;99421.28;;;10.25;100.00
15642;BME280;7920;42.524;27.448;2024-03-25T05:02:32;99422.00;;;10.16;100.00
15642;BME280;7920;42.524;27.448;2024-03-25T05:04:58;99430.00;;;10.13;100.00
15642;BME280;7920;42.524;27.448;2024-03-25T05:07:25;99427.91;;;10.07;100.00
15642;BME280;7920;42.524;27.448;2024-03-25T05:09:51;99436.72;;;10.15;100.00
15642;BME280;7920;42.524;27.448;2024-03-25T05:12:17;99434.25;;;10.14;100.00
15642;BME280;7920;42.524;27.448;2024-03-25T05:14:43;99439.06;;;10.07;100.00
15642;BME280;7920;42.524;27.448;2024-03-25T05:17:12;99458.75;;;9.99;100.00
15642;BME280;7920;42.524;27.448;2024-03-25T05:19:38;99486.88;;;10.03;100.00
15642;BME280;7920;42.524;27.448;2024-03-25T05:22:05;99506.69;;;10.04;100.00
15642;BME280;7920;42.524;27.448;2024-03-25T05:24:31;99519.75;;;9.92;100.00
15642;BME280;7920;42.524;27.448;2024-03-25T05:26:57;99519.38;;;9.74;100.00
15642;BME280;7920;42.524;27.448;2024-03-25T05:29:23;99504.03;;;9.60;100.00
15642;BME280;7920;42.524;27.448;2024-03-25T05:31:56;99503.72;;;9.64;100.00
15642;BME280;7920;42.524;27.448;2024-03-25T05:34:26;99519.84;;;9.22;100.00
15642;BME280;7920;42.524;27.448;2024-03-25T05:36:52;99496.63;;;9.09;100.00
15642;BME280;7920;42.524;27.448;2024-03-25T05:39:19;99492.25;;;8.99;100.00
15642;BME280;7920;42.524;27.448;2024-03-25T05:41:46;99505.19;;;8.99;100.00
15642;BME280;7920;42.524;27.448;2024-03-25T05:44:12;99514.72;;;8.74;100.00
15642;BME280;7920;42.524;27.448;2024-03-25T05:46:39;99525.25;;;8.71;100.00
15642;BME280;7920;42.524;27.448;2024-03-25T05:49:06;99529.50;;;8.72;100.00
15642;BME280;7920;42.524;27.448;2024-03-25T05:51:35;99547.91;;;8.68;100.00
15642;BME280;7920;42.524;27.448;2024-03-25T05:54:01;99570.97;;;8.71;100.00
15642;BME280;7920;42.524;27.448;2024-03-25T05:56:28;99579.63;;;8.82;100.00
15642;BME280;7920;42.524;27.448;2024-03-25T05:58:56;99592.75;;;8.79;100.00
15642;BME280;7920;42.524;27.448;2024-03-25T06:01:22;99585.22;;;8.76;100.00
15642;BME280;7920;42.524;27.448;2024-03-25T06:03:49;99575.97;;;8.61;100.00
15642;BME280;7920;42.524;27.448;2024-03-25T06:06:15;99561.31;;;8.49;100.00
15642;BME280;7920;42.524;27.448;2024-03-25T06:08:44;99565.50;;;8.63;100.00
15642;BME280;7920;42.524;27.448;2024-03-25T06:11:10;99586.78;;;8.30;100.00
15642;BME280;7920;42.524;27.448;2024-03-25T06:13:37;99594.22;;;8.71;100.00
15642;BME280;7920;42.524;27.448;2024-03-25T06:16:03;99603.38;;;8.51;100.00
15642;BME280;7920;42.524;27.448;2024-03-25T06:18:30;99605.84;;;8.65;100.00
15642;BME280;7920;42.524;27.448;2024-03-25T06:20:56;99630.97;;;8.25;100.00
15642;BME280;7920;42.524;27.448;2024-03-25T06:23:23;99614.94;;;7.95;100.00
15642;BME280;7920;42.524;27.448;2024-03-25T06:25:53;99585.81;;;7.80;100.00
15642;BME280;7920;42.524;27.448;2024-03-25T06:28:19;99640.13;;;7.66;100.00
15642;BME280;7920;42.524;27.448;2024-03-25T06:30:46;99648.75;;;7.52;100.00
15642;BME280;7920;42.524;27.448;2024-03-25T06:33:28;99649.16;;;7.59;100.00
15642;BME280;7920;42.524;27.448;2024-03-25T06:36:09;99693.09;;;7.72;100.00
15642;BME280;7920;42.524;27.448;2024-03-25T06:38:35;99723.84;;;7.62;100.00
15642;BME280;7920;42.524;27.448;2024-03-25T06:41:04;99717.88;;;7.47;100.00
15642;BME280;7920;42.524;27.448;2024-03-25T06:43:30;99722.03;;;7.50;100.00
15642;BME280;7920;42.524;27.448;2024-03-25T06:45:57;99707.84;;;7.70;100.00
15642;BME280;7920;42.524;27.448;2024-03-25T06:48:23;99716.44;;;7.70;100.00
15642;BME280;7920;42.524;27.448;2024-03-25T06:50:53;99718.13;;;7.57;100.00
15642;BME280;7920;42.524;27.448;2024-03-25T06:53:19;99749.38;;;7.52;100.00
15642;BME280;7920;42.524;27.448;2024-03-25T06:55:53;99733.56;;;7.30;100.00
15642;BME280;7920;42.524;27.448;2024-03-25T06:58:23;99722.81;;;7.24;100.00
15642;BME280;7920;42.524;27.448;2024-03-25T07:00:50;99732.97;;;7.13;100.00
15642;BME280;7920;42.524;27.448;2024-03-25T07:03:16;99725.63;;;6.92;100.00
15642;BME280;7920;42.524;27.448;2024-03-25T07:05:44;99738.31;;;7.10;100.00
15642;BME280;7920;42.524;27.448;2024-03-25T07:08:11;99732.78;;;7.16;100.00
15642;BME280;7920;42.524;27.448;2024-03-25T07:10:38;99767.41;;;7.12;100.00
15642;BME280;7920;42.524;27.448;2024-03-25T07:13:04;99763.47;;;7.06;100.00
15642;BME280;7920;42.524;27.448;2024-03-25T07:15:33;99777.63;;;7.27;100.00
15642;BME280;7920;42.524;27.448;2024-03-25T07:18:00;99768.13;;;7.28;100.00
15642;BME280;7920;42.524;27.448;2024-03-25T07:20:26;99778.97;;;7.47;100.00
15642;BME280;7920;42.524;27.448;2024-03-25T07:22:52;99770.50;;;7.45;100.00
15642;BME280;7920;42.524;27.448;2024-03-25T07:25:19;99768.94;;;7.42;100.00
15642;BME280;7920;42.524;27.448;2024-03-25T07:27:45;99762.22;;;7.54;100.00
15642;BME280;7920;42.524;27.448;2024-03-25T07:30:12;99765.84;;;7.23;100.00
15642;BME280;7920;42.524;27.448;2024-03-25T07:32:41;99759.28;;;7.46;100.00
15642;BME280;7920;42.524;27.448;2024-03-25T07:35:07;99764.53;;;7.44;100.00
15642;BME280;7920;42.524;27.448;2024-03-25T07:37:34;99760.47;;;7.40;100.00
15642;BME280;7920;42.524;27.448;2024-03-25T07:40:00;99754.47;;;7.54;100.00
15642;BME280;7920;42.524;27.448;2024-03-25T07:42:26;99755.31;;;7.67;100.00
15642;BME280;7920;42.524;27.448;2024-03-25T07:44:53;99745.28;;;7.63;100.00
15642;BME280;7920;42.524;27.448;2024-03-25T07:47:19;99735.75;;;7.77;100.00
15642;BME280;7920;42.524;27.448;2024-03-25T07:49:48;99741.22;;;7.46;100.00
15642;BME280;7920;42.524;27.448;2024-03-25T07:52:14;99739.22;;;7.64;100.00
15642;BME280;7920;42.524;27.448;2024-03-25T07:54:40;99740.66;;;7.68;100.00
15642;BME280;7920;42.524;27.448;2024-03-25T07:57:06;99737.09;;;7.83;100.00
15642;BME280;7920;42.524;27.448;2024-03-25T07:59:33;99742.22;;;7.97;100.00
15642;BME280;7920;42.524;27.448;2024-03-25T08:01:59;99752.72;;;7.81;100.00
15642;BME280;7920;42.524;27.448;2024-03-25T08:04:25;99737.72;;;7.86;100.00
15642;BME280;7920;42.524;27.448;2024-03-25T08:06:54;99738.84;;;8.09;100.00
15642;BME280;7920;42.524;27.448;2024-03-25T08:09:21;99739.09;;;8.31;100.00
15642;BME280;7920;42.524;27.448;2024-03-25T08:11:47;99749.47;;;8.57;100.00
15642;BME280;7920;42.524;27.448;2024-03-25T08:14:13;99741.72;;;8.44;100.00
15642;BME280;7920;42.524;27.448;2024-03-25T08:16:40;99749.19;;;8.61;100.00
15642;BME280;7920;42.524;27.448;2024-03-25T08:19:06;99747.06;;;9.04;100.00
15642;BME280;7920;42.524;27.448;2024-03-25T08:21:32;99750.47;;;9.17;100.00
15642;BME280;7920;42.524;27.448;2024-03-25T08:24:01;99754.81;;;9.17;100.00
15642;BME280;7920;42.524;27.448;2024-03-25T08:26:27;99744.19;;;9.45;100.00
15642;BME280;7920;42.524;27.448;2024-03-25T08:28:54;99757.25;;;9.91;100.00
15642;BME280;7920;42.524;27.448;2024-03-25T08:31:20;99764.97;;;10.04;100.00
15642;BME280;7920;42.524;27.448;2024-03-25T08:33:46;99753.13;;;9.88;100.00
15642;BME280;7920;42.524;27.448;2024-03-25T08:36:12;99755.41;;;10.17;100.00
15642;BME280;7920;42.524;27.448;2024-03-25T08:38:39;99766.81;;;9.91;100.00
15642;BME280;7920;42.524;27.448;2024-03-25T08:41:07;99768.94;;;9.97;100.00
15642;BME280;7920;42.524;27.448;2024-03-25T08:43:34;99759.97;;;9.90;100.00
15642;BME280;7920;42.524;27.448;2024-03-25T08:46:00;99754.75;;;9.78;100.00
15642;BME280;7920;42.524;27.448;2024-03-25T08:48:26;99759.84;;;9.67;100.00
15642;BME280;7920;42.524;27.448;2024-03-25T08:50:53;99764.94;;;9.93;100.00
15642;BME280;7920;42.524;27.448;2024-03-25T08:53:19;99757.66;;;10.21;100.00
15642;BME280;7920;42.524;27.448;2024-03-25T08:55:45;99759.09;;;9.78;100.00
15642;BME280;7920;42.524;27.448;2024-03-25T08:58:15;99763.69;;;9.74;100.00
15642;BME280;7920;42.524;27.448;2024-03-25T09:00:42;99751.31;;;10.02;100.00
15642;BME280;7920;42.524;27.448;2024-03-25T09:03:08;99757.69;;;10.09;100.00
15642;BME280;7920;42.524;27.448;2024-03-25T09:05:35;99754.06;;;10.35;100.00
15642;BME280;7920;42.524;27.448;2024-03-25T09:08:01;99753.50;;;10.43;100.00
15642;BME280;7920;42.524;27.448;2024-03-25T09:10:28;99755.94;;;10.33;100.00
15642;BME280;7920;42.524;27.448;2024-03-25T09:13:09;99764.19;;;10.38;100.00
15642;BME280;7920;42.524;27.448;2024-03-25T09:15:38;99765.06;;;10.61;100.00
15642;BME280;7920;42.524;27.448;2024-03-25T09:18:05;99765.66;;;10.64;100.00
15642;BME280;7920;42.524;27.448;2024-03-25T09:20:31;99774.75;;;10.24;100.00
15642;BME280;7920;42.524;27.448;2024-03-25T09:22:57;99780.66;;;10.26;100.00
15642;BME280;7920;42.524;27.448;2024-03-25T09:25:24;99777.56;;;9.97;100.00
15642;BME280;7920;42.524;27.448;2024-03-25T09:27:50;99773.72;;;10.03;100.00
15642;BME280;7920;42.524;27.448;2024-03-25T09:30:17;99779.34;;;10.08;100.00
15642;BME280;7920;42.524;27.448;2024-03-25T09:32:46;99773.66;;;10.15;100.00
15642;BME280;7920;42.524;27.448;2024-03-25T09:35:12;99796.03;;;10.16;100.00
15642;BME280;7920;42.524;27.448;2024-03-25T09:37:39;99791.34;;;9.98;100.00
15642;BME280;7920;42.524;27.448;2024-03-25T09:40:06;99793.38;;;10.05;100.00
15642;BME280;7920;42.524;27.448;2024-03-25T09:42:34;99790.22;;;10.13;100.00
15642;BME280;7920;42.524;27.448;2024-03-25T09:45:02;99791.13;;;10.01;100.00
15642;BME280;7920;42.524;27.448;2024-03-25T09:47:31;99783.94;;;10.04;100.00
15642;BME280;7920;42.524;27.448;2024-03-25T09:50:02;99792.38;;;9.95;100.00
15642;BME280;7920;42.524;27.448;2024-03-25T09:52:30;99799.66;;;9.90;100.00
15642;BME280;7920;42.524;27.448;2024-03-25T09:54:56;99803.41;;;10.10;100.00
15642;BME280;7920;42.524;27.448;2024-03-25T09:57:23;99802.31;;;10.01;100.00
15642;BME280;7920;42.524;27.448;2024-03-25T09:59:51;99818.22;;;10.08;100.00
15642;BME280;7920;42.524;27.448;2024-03-25T10:02:17;99818.72;;;9.89;100.00
15642;BME280;7920;42.524;27.448;2024-03-25T10:04:46;99825.97;;;9.97;100.00
15642;BME280;7920;42.524;27.448;2024-03-25T10:07:22;99813.38;;;10.03;100.00
15642;BME280;7920;42.524;27.448;2024-03-25T10:09:48;99824.16;;;10.10;100.00
15642;BME280;7920;42.524;27.448;2024-03-25T10:12:15;99829.94;;;10.13;100.00
15642;BME280;7920;42.524;27.448;2024-03-25T10:14:41;99822.66;;;9.95;100.00
15642;BME280;7920;42.524;27.448;2024-03-25T10:17:08;99817.47;;;9.95;100.00
15642;BME280;7920;42.524;27.448;2024-03-25T10:19:34;99821.50;;;9.99;100.00
15642;BME280;7920;42.524;27.448;2024-03-25T10:22:02;99825.63;;;10.01;100.00
15642;BME280;7920;42.524;27.448;2024-03-25T10:24:39;99832.94;;;10.07;100.00
15642;BME280;7920;42.524;27.448;2024-03-25T10:27:05;99833.06;;;10.18;100.00
15642;BME280;7920;42.524;27.448;2024-03-25T10:29:32;99819.13;;;10.43;100.00
15642;BME280;7920;42.524;27.448;2024-03-25T10:32:01;99831.50;;;10.16;100.00
15642;BME280;7920;42.524;27.448;2024-03-25T10:34:28;99817.19;;;10.23;100.00
15642;BME280;7920;42.524;27.448;2024-03-25T10:36:57;99811.09;;;10.35;100.00
15642;BME280;7920;42.524;27.448;2024-03-25T10:39:27;99820.09;;;10.53;100.00
15642;BME280;7920;42.524;27.448;2024-03-25T10:41:59;99838.81;;;10.46;100.00
15642;BME280;7920;42.524;27.448;2024-03-25T10:44:26;99827.09;;;10.64;100.00
15642;BME280;7920;42.524;27.448;2024-03-25T10:46:58;99815.44;;;10.69;100.00
15642;BME280;7920;42.524;27.448;2024-03-25T10:49:33;99817.03;;;10.59;100.00
15642;BME280;7920;42.524;27.448;2024-03-25T10:52:01;99854.31;;;10.58;100.00
15642;BME280;7920;42.524;27.448;2024-03-25T10:54:30;99850.91;;;10.58;100.00
15642;BME280;7920;42.524;27.448;2024-03-25T10:57:00;99868.66;;;10.51;100.00
15642;BME280;7920;42.524;27.448;2024-03-25T10:59:30;99871.56;;;10.70;100.00
15642;BME280;7920;42.524;27.448;2024-03-25T11:01:56;99860.59;;;10.43;100.00
15642;BME280;7920;42.524;27.448;2024-03-25T11:04:23;99879.44;;;10.34;100.00
15642;BME280;7920;42.524;27.448;2024-03-25T11:06:50;99853.84;;;10.29;100.00
15642;BME280;7920;42.524;27.448;2024-03-25T11:09:23;99881.72;;;10.15;100.00
15642;BME280;7920;42.524;27.448;2024-03-25T11:11:51;99917.53;;;10.08;100.00
15642;BME280;7920;42.524;27.448;2024-03-25T11:14:20;99901.69;;;10.13;100.00
15642;BME280;7920;42.524;27.448;2024-03-25T11:16:51;99856.22;;;10.67;100.00
15642;BME280;7920;42.524;27.448;2024-03-25T11:19:18;99869.41;;;10.64;100.00
15642;BME280;7920;42.524;27.448;2024-03-25T11:21:45;99876.63;;;10.72;100.00
15642;BME280;7920;42.524;27.448;2024-03-25T11:24:11;99862.66;;;10.86;100.00
15642;BME280;7920;42.524;27.448;2024-03-25T11:26:41;99922.63;;;10.70;100.00
15642;BME280;7920;42.524;27.448;2024-03-25T11:29:08;99879.94;;;10.74;100.00
15642;BME280;7920;42.524;27.448;2024-03-25T11:31:38;99870.34;;;10.98;100.00
15642;BME280;7920;42.524;27.448;2024-03-25T11:34:05;99920.22;;;10.19;100.00
15642;BME280;7920;42.524;27.448;2024-03-25T11:36:32;99872.66;;;10.08;100.00
15642;BME280;7920;42.524;27.448;2024-03-25T11:38:59;99910.09;;;10.16;100.00
15642;BME280;7920;42.524;27.448;2024-03-25T11:41:26;99920.47;;;10.04;100.00
15642;BME280;7920;42.524;27.448;2024-03-25T11:43:52;99913.97;;;9.85;100.00
15642;BME280;7920;42.524;27.448;2024-03-25T11:46:19;99892.91;;;10.03;100.00
15642;BME280;7920;42.524;27.448;2024-03-25T11:48:48;99899.31;;;10.46;100.00
15642;BME280;7920;42.524;27.448;2024-03-25T11:51:16;99877.19;;;10.64;100.00
15642;BME280;7920;42.524;27.448;2024-03-25T11:53:43;99926.06;;;10.47;100.00
15642;BME280;7920;42.524;27.448;2024-03-25T11:56:10;99964.09;;;10.22;100.00
15642;BME280;7920;42.524;27.448;2024-03-25T11:58:37;99937.84;;;10.27;100.00
15642;BME280;7920;42.524;27.448;2024-03-25T12:01:03;99897.66;;;10.09;100.00
15642;BME280;7920;42.524;27.448;2024-03-25T12:03:30;99900.00;;;10.48;100.00
15642;BME280;7920;42.524;27.448;2024-03-25T12:05:59;99931.72;;;10.28;100.00
15642;BME280;7920;42.524;27.448;2024-03-25T12:08:25;99893.31;;;10.57;100.00
15642;BME280;7920;42.524;27.448;2024-03-25T12:10:52;99928.25;;;10.40;100.00
15642;BME280;7920;42.524;27.448;2024-03-25T12:13:33;99946.63;;;10.37;100.00
15642;BME280;7920;42.524;27.448;2024-03-25T12:15:59;99958.25;;;9.82;100.00
15642;BME280;7920;42.524;27.448;2024-03-25T12:18:26;99982.47;;;9.81;100.00
15642;BME280;7920;42.524;27.448;2024-03-25T12:20:52;99930.66;;;9.94;100.00
15642;BME280;7920;42.524;27.448;2024-03-25T12:23:21;99919.16;;;9.98;100.00
15642;BME280;7920;42.524;27.448;2024-03-25T12:25:48;99927.03;;;10.57;100.00
15642;BME280;7920;42.524;27.448;2024-03-25T12:28:15;99932.19;;;10.46;100.00
15642;BME280;7920;42.524;27.448;2024-03-25T12:30:49;99940.06;;;10.44;100.00
15642;BME280;7920;42.524;27.448;2024-03-25T12:33:16;99966.13;;;10.43;100.00
15642;BME280;7920;42.524;27.448;2024-03-25T12:35:44;99955.28;;;10.25;100.00
15642;BME280;7920;42.524;27.448;2024-03-25T12:38:24;99940.78;;;10.10;100.00
15642;BME280;7920;42.524;27.448;2024-03-25T12:40:50;99935.13;;;10.28;100.00
15642;BME280;7920;42.524;27.448;2024-03-25T12:43:17;99964.44;;;9.93;100.00
15642;BME280;7920;42.524;27.448;2024-03-25T12:45:43;99949.56;;;10.20;100.00
15642;BME280;7920;42.524;27.448;2024-03-25T12:48:10;99962.13;;;10.13;100.00
15642;BME280;7920;42.524;27.448;2024-03-25T12:50:37;99992.00;;;9.94;100.00
15642;BME280;7920;42.524;27.448;2024-03-25T12:53:04;99956.84;;;10.02;100.00